sensor_id;sensor_type;location;lat;lon;timestamp;temperature;humidity
6930;DHT22;3504;52.616;13.238;2023-05-10T00:03:16;13.36;52.56
6930;DHT22;3504;52.616;13.238;2023-05-10T00:08:16;13.32;52.42
6930;DHT22;3504;52.616;13.238;2023-05-10T00:13:17;13.25;52.87
6930;DHT22;3504;52.616;13.238;2023-05-10T00:18:17;13.18;53.15
6930;DHT22;3504;52.616;13.238;2023-05-10T00:23:18;13.12;53.06
6930;DHT22;3504;52.616;13.238;2023-05-10T00:28:19;13.10;53.63
6930;DHT22;3504;52.616;13.238;2023-05-10T00:33:19;12.96;53.73
6930;DHT22;3504;52.616;13.238;2023-05-10T00:38:19;12.93;53.68
6930;DHT22;3504;52.616;13.238;2023-05-10T00:43:20;12.85;54.32
6930;DHT22;3504;52.616;13.238;2023-05-10T00:48:22;12.80;54.09
6930;DHT22;3504;52.616;13.238;2023-05-10T00:53:23;12.73;54.50
6930;DHT22;3504;52.616;13.238;2023-05-10T00:58:25;12.66;54.83
6930;DHT22;3504;52.616;13.238;2023-05-10T01:03:28;12.56;54.99
6930;DHT22;3504;52.616;13.238;2023-05-10T01:08:29;12.52;55.22
6930;DHT22;3504;52.616;13.238;2023-05-10T01:13:40;12.39;55.29
6930;DHT22;3504;52.616;13.238;2023-05-10T01:18:41;12.25;56.27
6930;DHT22;3504;52.616;13.238;2023-05-10T01:24:08;12.19;56.21
6930;DHT22;3504;52.616;13.238;2023-05-10T01:35:13;12.06;56.76
6930;DHT22;3504;52.616;13.238;2023-05-10T01:40:23;12.01;56.88
6930;DHT22;3504;52.616;13.238;2023-05-10T01:45:39;11.94;57.31
6930;DHT22;3504;52.616;13.238;2023-05-10T01:50:43;11.89;57.17
6930;DHT22;3504;52.616;13.238;2023-05-10T01:55:51;11.82;57.42
6930;DHT22;3504;52.616;13.238;2023-05-10T02:00:53;11.74;58.12
6930;DHT22;3504;52.616;13.238;2023-05-10T02:05:56;11.74;57.91
6930;DHT22;3504;52.616;13.238;2023-05-10T02:10:58;11.74;57.73
6930;DHT22;3504;52.616;13.238;2023-05-10T02:16:00;11.70;58.03
6930;DHT22;3504;52.616;13.238;2023-05-10T02:21:02;11.64;58.19
6930;DHT22;3504;52.616;13.238;2023-05-10T02:26:03;11.58;58.49
6930;DHT22;3504;52.616;13.238;2023-05-10T02:31:06;11.50;58.78
6930;DHT22;3504;52.616;13.238;2023-05-10T02:36:08;11.47;58.97
6930;DHT22;3504;52.616;13.238;2023-05-10T02:41:11;11.46;58.90
6930;DHT22;3504;52.616;13.238;2023-05-10T02:46:12;11.42;59.18
6930;DHT22;3504;52.616;13.238;2023-05-10T02:51:13;11.39;59.19
6930;DHT22;3504;52.616;13.238;2023-05-10T02:56:25;11.35;59.33
6930;DHT22;3504;52.616;13.238;2023-05-10T03:01:26;11.30;59.41
6930;DHT22;3504;52.616;13.238;2023-05-10T03:06:27;11.29;59.51
6930;DHT22;3504;52.616;13.238;2023-05-10T03:11:56;11.22;59.67
6930;DHT22;3504;52.616;13.238;2023-05-10T03:17:11;11.22;59.68
6930;DHT22;3504;52.616;13.238;2023-05-10T03:22:24;11.20;59.56
6930;DHT22;3504;52.616;13.238;2023-05-10T03:27:26;11.19;59.67
6930;DHT22;3504;52.616;13.238;2023-05-10T03:32:29;11.12;60.00
6930;DHT22;3504;52.616;13.238;2023-05-10T03:37:33;11.07;59.87
6930;DHT22;3504;52.616;13.238;2023-05-10T03:42:34;11.07;59.99
6930;DHT22;3504;52.616;13.238;2023-05-10T03:47:34;11.06;60.04
6930;DHT22;3504;52.616;13.238;2023-05-10T03:52:35;11.05;60.08
6930;DHT22;3504;52.616;13.238;2023-05-10T03:57:37;11.03;60.07
6930;DHT22;3504;52.616;13.238;2023-05-10T04:02:37;11.03;60.07
6930;DHT22;3504;52.616;13.238;2023-05-10T04:07:38;11.02;60.15
6930;DHT22;3504;52.616;13.238;2023-05-10T04:12:39;11.07;59.87
6930;DHT22;3504;52.616;13.238;2023-05-10T04:17:39;11.07;60.19
6930;DHT22;3504;52.616;13.238;2023-05-10T04:22:40;11.12;60.40
6930;DHT22;3504;52.616;13.238;2023-05-10T04:27:40;11.12;60.03
6930;DHT22;3504;52.616;13.238;2023-05-10T04:32:41;11.16;60.20
6930;DHT22;3504;52.616;13.238;2023-05-10T04:37:42;11.22;59.95
6930;DHT22;3504;52.616;13.238;2023-05-10T04:42:44;11.24;59.92
6930;DHT22;3504;52.616;13.238;2023-05-10T04:47:44;11.29;59.86
6930;DHT22;3504;52.616;13.238;2023-05-10T04:52:44;11.42;59.71
6930;DHT22;3504;52.616;13.238;2023-05-10T04:57:45;11.46;59.12
6930;DHT22;3504;52.616;13.238;2023-05-10T05:02:46;11.57;59.16
6930;DHT22;3504;52.616;13.238;2023-05-10T05:07:47;11.64;58.86
6930;DHT22;3504;52.616;13.238;2023-05-10T05:12:47;11.77;58.50
6930;DHT22;3504;52.616;13.238;2023-05-10T05:17:48;11.89;58.61
6930;DHT22;3504;52.616;13.238;2023-05-10T05:22:48;12.09;58.10
6930;DHT22;3504;52.616;13.238;2023-05-10T05:27:52;12.30;57.60
6930;DHT22;3504;52.616;13.238;2023-05-10T05:32:53;12.63;56.86
6930;DHT22;3504;52.616;13.238;2023-05-10T05:37:53;13.17;55.69
6930;DHT22;3504;52.616;13.238;2023-05-10T05:42:56;13.63;54.22
6930;DHT22;3504;52.616;13.238;2023-05-10T05:47:57;14.18;53.11
6930;DHT22;3504;52.616;13.238;2023-05-10T05:52:58;14.50;51.37
6930;DHT22;3504;52.616;13.238;2023-05-10T05:57:58;14.89;50.61
6930;DHT22;3504;52.616;13.238;2023-05-10T06:02:59;15.32;49.75
6930;DHT22;3504;52.616;13.238;2023-05-10T06:07:59;15.53;48.97
6930;DHT22;3504;52.616;13.238;2023-05-10T06:13:00;15.90;48.54
6930;DHT22;3504;52.616;13.238;2023-05-10T06:18:01;16.12;47.71
6930;DHT22;3504;52.616;13.238;2023-05-10T06:23:02;16.21;48.08
6930;DHT22;3504;52.616;13.238;2023-05-10T06:28:05;16.28;47.07
6930;DHT22;3504;52.616;13.238;2023-05-10T06:33:06;16.49;47.57
6930;DHT22;3504;52.616;13.238;2023-05-10T06:38:07;16.63;46.14
6930;DHT22;3504;52.616;13.238;2023-05-10T06:43:11;16.67;46.44
6930;DHT22;3504;52.616;13.238;2023-05-10T06:48:12;16.56;46.40
6930;DHT22;3504;52.616;13.238;2023-05-10T06:53:12;16.79;46.73
6930;DHT22;3504;52.616;13.238;2023-05-10T06:58:13;16.73;46.36
6930;DHT22;3504;52.616;13.238;2023-05-10T07:03:14;16.84;46.98
6930;DHT22;3504;52.616;13.238;2023-05-10T07:08:14;17.14;45.96
6930;DHT22;3504;52.616;13.238;2023-05-10T07:13:15;17.28;45.52
6930;DHT22;3504;52.616;13.238;2023-05-10T07:18:15;17.44;46.57
6930;DHT22;3504;52.616;13.238;2023-05-10T07:23:16;17.44;45.81
6930;DHT22;3504;52.616;13.238;2023-05-10T07:28:20;17.58;45.39
6930;DHT22;3504;52.616;13.238;2023-05-10T07:33:20;17.78;46.74
6930;DHT22;3504;52.616;13.238;2023-05-10T07:38:21;18.16;45.73
6930;DHT22;3504;52.616;13.238;2023-05-10T07:43:21;18.23;45.38
6930;DHT22;3504;52.616;13.238;2023-05-10T07:48:22;18.43;44.53
6930;DHT22;3504;52.616;13.238;2023-05-10T07:53:23;18.65;44.90
6930;DHT22;3504;52.616;13.238;2023-05-10T07:58:24;18.68;43.02
6930;DHT22;3504;52.616;13.238;2023-05-10T08:03:25;18.65;43.14
6930;DHT22;3504;52.616;13.238;2023-05-10T08:08:25;18.68;43.37
6930;DHT22;3504;52.616;13.238;2023-05-10T08:13:26;18.84;44.38
6930;DHT22;3504;52.616;13.238;2023-05-10T08:18:29;19.03;43.54
6930;DHT22;3504;52.616;13.238;2023-05-10T08:23:30;19.23;42.78
6930;DHT22;3504;52.616;13.238;2023-05-10T08:28:30;19.32;41.57
6930;DHT22;3504;52.616;13.238;2023-05-10T08:33:31;19.60;42.90
6930;DHT22;3504;52.616;13.238;2023-05-10T08:38:31;19.71;41.87
6930;DHT22;3504;52.616;13.238;2023-05-10T08:43:32;19.84;42.26
6930;DHT22;3504;52.616;13.238;2023-05-10T08:48:34;20.08;42.31
6930;DHT22;3504;52.616;13.238;2023-05-10T08:53:36;20.22;40.58
6930;DHT22;3504;52.616;13.238;2023-05-10T08:58:40;20.66;40.17
6930;DHT22;3504;52.616;13.238;2023-05-10T09:03:41;20.97;39.81
6930;DHT22;3504;52.616;13.238;2023-05-10T09:08:42;20.89;40.13
6930;DHT22;3504;52.616;13.238;2023-05-10T09:13:43;21.06;40.45
6930;DHT22;3504;52.616;13.238;2023-05-10T09:18:44;21.41;40.18
6930;DHT22;3504;52.616;13.238;2023-05-10T09:23:45;21.40;39.49
6930;DHT22;3504;52.616;13.238;2023-05-10T09:28:55;21.74;39.66
6930;DHT22;3504;52.616;13.238;2023-05-10T09:33:56;21.75;39.05
6930;DHT22;3504;52.616;13.238;2023-05-10T09:38:57;21.89;37.43
6930;DHT22;3504;52.616;13.238;2023-05-10T09:43:58;22.16;38.77
6930;DHT22;3504;52.616;13.238;2023-05-10T09:48:58;22.35;39.69
6930;DHT22;3504;52.616;13.238;2023-05-10T09:54:14;22.52;38.27
6930;DHT22;3504;52.616;13.238;2023-05-10T09:59:15;22.84;38.41
6930;DHT22;3504;52.616;13.238;2023-05-10T10:04:15;22.92;37.86
6930;DHT22;3504;52.616;13.238;2023-05-10T10:09:19;22.80;36.75
6930;DHT22;3504;52.616;13.238;2023-05-10T10:14:20;22.97;36.48
6930;DHT22;3504;52.616;13.238;2023-05-10T10:19:22;23.05;36.78
6930;DHT22;3504;52.616;13.238;2023-05-10T10:24:22;23.21;35.87
6930;DHT22;3504;52.616;13.238;2023-05-10T10:29:43;23.42;36.05
6930;DHT22;3504;52.616;13.238;2023-05-10T10:34:48;23.62;36.72
6930;DHT22;3504;52.616;13.238;2023-05-10T10:39:49;23.59;34.63
6930;DHT22;3504;52.616;13.238;2023-05-10T10:45:13;23.72;35.52
6930;DHT22;3504;52.616;13.238;2023-05-10T10:50:13;24.01;34.87
6930;DHT22;3504;52.616;13.238;2023-05-10T10:55:20;23.82;34.68
6930;DHT22;3504;52.616;13.238;2023-05-10T11:00:36;23.76;35.77
6930;DHT22;3504;52.616;13.238;2023-05-10T11:05:38;24.00;35.01
6930;DHT22;3504;52.616;13.238;2023-05-10T11:10:48;24.01;34.86
6930;DHT22;3504;52.616;13.238;2023-05-10T11:15:48;23.90;34.95
6930;DHT22;3504;52.616;13.238;2023-05-10T11:20:58;24.06;36.17
6930;DHT22;3504;52.616;13.238;2023-05-10T11:26:00;24.31;33.48
6930;DHT22;3504;52.616;13.238;2023-05-10T11:31:05;24.51;35.16
6930;DHT22;3504;52.616;13.238;2023-05-10T11:36:14;24.57;33.07
6930;DHT22;3504;52.616;13.238;2023-05-10T11:41:17;24.44;34.03
6930;DHT22;3504;52.616;13.238;2023-05-10T11:46:20;24.40;33.52
6930;DHT22;3504;52.616;13.238;2023-05-10T11:51:24;24.16;34.50
6930;DHT22;3504;52.616;13.238;2023-05-10T11:56:25;24.39;36.90
6930;DHT22;3504;52.616;13.238;2023-05-10T12:01:28;24.22;34.07
6930;DHT22;3504;52.616;13.238;2023-05-10T12:06:31;24.09;33.75
6930;DHT22;3504;52.616;13.238;2023-05-10T12:11:37;24.10;33.81
6930;DHT22;3504;52.616;13.238;2023-05-10T12:16:38;24.21;33.38
6930;DHT22;3504;52.616;13.238;2023-05-10T12:21:38;24.17;34.07
6930;DHT22;3504;52.616;13.238;2023-05-10T12:26:39;24.27;34.37
6930;DHT22;3504;52.616;13.238;2023-05-10T12:31:53;24.31;33.33
6930;DHT22;3504;52.616;13.238;2023-05-10T12:36:55;24.17;33.43
6930;DHT22;3504;52.616;13.238;2023-05-10T12:41:55;24.04;32.34
6930;DHT22;3504;52.616;13.238;2023-05-10T12:46:57;24.20;33.37
6930;DHT22;3504;52.616;13.238;2023-05-10T12:51:57;24.11;33.02
6930;DHT22;3504;52.616;13.238;2023-05-10T12:56:58;24.11;33.41
6930;DHT22;3504;52.616;13.238;2023-05-10T13:01:58;23.75;33.36
6930;DHT22;3504;52.616;13.238;2023-05-10T13:06:59;23.79;34.18
6930;DHT22;3504;52.616;13.238;2023-05-10T13:12:00;23.88;33.77
6930;DHT22;3504;52.616;13.238;2023-05-10T13:17:01;23.88;34.88
6930;DHT22;3504;52.616;13.238;2023-05-10T13:22:01;24.00;34.37
6930;DHT22;3504;52.616;13.238;2023-05-10T13:27:02;24.17;35.05
6930;DHT22;3504;52.616;13.238;2023-05-10T13:32:02;24.25;33.92
6930;DHT22;3504;52.616;13.238;2023-05-10T13:37:03;24.25;34.62
6930;DHT22;3504;52.616;13.238;2023-05-10T13:42:04;24.22;32.90
6930;DHT22;3504;52.616;13.238;2023-05-10T13:47:05;24.27;33.23
6930;DHT22;3504;52.616;13.238;2023-05-10T13:52:06;24.34;33.62
6930;DHT22;3504;52.616;13.238;2023-05-10T13:57:07;24.39;34.01
6930;DHT22;3504;52.616;13.238;2023-05-10T14:02:07;24.41;33.06
6930;DHT22;3504;52.616;13.238;2023-05-10T14:07:08;24.13;33.76
6930;DHT22;3504;52.616;13.238;2023-05-10T14:12:08;24.24;34.56
6930;DHT22;3504;52.616;13.238;2023-05-10T14:17:09;24.39;32.21
6930;DHT22;3504;52.616;13.238;2023-05-10T14:22:10;24.13;32.92
6930;DHT22;3504;52.616;13.238;2023-05-10T14:27:10;23.72;32.87
6930;DHT22;3504;52.616;13.238;2023-05-10T14:32:12;23.28;33.26
6930;DHT22;3504;52.616;13.238;2023-05-10T14:37:13;23.18;33.95
6930;DHT22;3504;52.616;13.238;2023-05-10T14:42:14;23.01;34.93
6930;DHT22;3504;52.616;13.238;2023-05-10T14:47:15;22.99;35.28
6930;DHT22;3504;52.616;13.238;2023-05-10T14:52:15;22.86;34.31
6930;DHT22;3504;52.616;13.238;2023-05-10T14:57:19;22.84;35.03
6930;DHT22;3504;52.616;13.238;2023-05-10T15:02:20;22.68;34.74
6930;DHT22;3504;52.616;13.238;2023-05-10T15:07:20;22.61;34.75
6930;DHT22;3504;52.616;13.238;2023-05-10T15:12:21;22.56;34.83
6930;DHT22;3504;52.616;13.238;2023-05-10T15:17:21;22.47;34.97
6930;DHT22;3504;52.616;13.238;2023-05-10T15:22:22;22.40;35.61
6930;DHT22;3504;52.616;13.238;2023-05-10T15:27:22;22.44;35.62
6930;DHT22;3504;52.616;13.238;2023-05-10T15:32:23;22.39;35.53
6930;DHT22;3504;52.616;13.238;2023-05-10T15:37:23;22.47;35.37
6930;DHT22;3504;52.616;13.238;2023-05-10T15:42:24;22.52;35.31
6930;DHT22;3504;52.616;13.238;2023-05-10T15:47:25;22.55;34.74
6930;DHT22;3504;52.616;13.238;2023-05-10T15:52:26;22.71;35.40
6930;DHT22;3504;52.616;13.238;2023-05-10T15:57:27;22.88;35.99
6930;DHT22;3504;52.616;13.238;2023-05-10T16:02:27;22.94;34.84
6930;DHT22;3504;52.616;13.238;2023-05-10T16:07:28;22.87;35.32
6930;DHT22;3504;52.616;13.238;2023-05-10T16:12:29;22.73;41.45
6930;DHT22;3504;52.616;13.238;2023-05-10T16:17:30;22.57;47.80
6930;DHT22;3504;52.616;13.238;2023-05-10T16:22:31;22.29;50.13
6930;DHT22;3504;52.616;13.238;2023-05-10T16:27:31;22.04;51.28
6930;DHT22;3504;52.616;13.238;2023-05-10T16:32:32;21.72;52.19
6930;DHT22;3504;52.616;13.238;2023-05-10T16:37:33;21.59;52.63
6930;DHT22;3504;52.616;13.238;2023-05-10T16:42:33;21.45;53.24
6930;DHT22;3504;52.616;13.238;2023-05-10T16:47:35;21.33;54.29
6930;DHT22;3504;52.616;13.238;2023-05-10T16:52:36;21.23;54.36
6930;DHT22;3504;52.616;13.238;2023-05-10T16:57:37;21.10;55.51
6930;DHT22;3504;52.616;13.238;2023-05-10T17:02:37;21.02;55.44
6930;DHT22;3504;52.616;13.238;2023-05-10T17:07:38;20.93;55.95
6930;DHT22;3504;52.616;13.238;2023-05-10T17:12:38;20.84;56.46
6930;DHT22;3504;52.616;13.238;2023-05-10T17:17:39;20.65;56.84
6930;DHT22;3504;52.616;13.238;2023-05-10T17:22:40;20.45;57.49
6930;DHT22;3504;52.616;13.238;2023-05-10T17:27:41;20.32;57.41
6930;DHT22;3504;52.616;13.238;2023-05-10T17:32:42;20.08;58.53
6930;DHT22;3504;52.616;13.238;2023-05-10T17:37:42;19.92;58.52
6930;DHT22;3504;52.616;13.238;2023-05-10T17:42:44;19.87;58.86
6930;DHT22;3504;52.616;13.238;2023-05-10T17:47:44;19.77;59.33
6930;DHT22;3504;52.616;13.238;2023-05-10T17:52:45;19.69;59.34
6930;DHT22;3504;52.616;13.238;2023-05-10T17:57:46;19.66;60.59
6930;DHT22;3504;52.616;13.238;2023-05-10T18:02:46;19.50;60.25
6930;DHT22;3504;52.616;13.238;2023-05-10T18:07:47;19.46;59.94
6930;DHT22;3504;52.616;13.238;2023-05-10T18:12:47;19.32;61.27
6930;DHT22;3504;52.616;13.238;2023-05-10T18:17:50;19.15;61.16
6930;DHT22;3504;52.616;13.238;2023-05-10T18:22:50;18.98;61.57
6930;DHT22;3504;52.616;13.238;2023-05-10T18:27:51;18.84;61.97
6930;DHT22;3504;52.616;13.238;2023-05-10T18:32:52;18.77;62.12
6930;DHT22;3504;52.616;13.238;2023-05-10T18:37:55;18.71;62.57
6930;DHT22;3504;52.616;13.238;2023-05-10T18:42:56;18.61;62.08
6930;DHT22;3504;52.616;13.238;2023-05-10T18:47:57;18.56;62.68
6930;DHT22;3504;52.616;13.238;2023-05-10T18:52:58;18.46;64.53
6930;DHT22;3504;52.616;13.238;2023-05-10T18:57:58;18.34;64.97
6930;DHT22;3504;52.616;13.238;2023-05-10T19:02:59;18.27;64.35
6930;DHT22;3504;52.616;13.238;2023-05-10T19:08:00;18.23;65.49
6930;DHT22;3504;52.616;13.238;2023-05-10T19:13:00;18.20;64.62
6930;DHT22;3504;52.616;13.238;2023-05-10T19:18:01;18.13;64.97
6930;DHT22;3504;52.616;13.238;2023-05-10T19:23:02;18.06;65.55
6930;DHT22;3504;52.616;13.238;2023-05-10T19:28:02;17.93;66.18
6930;DHT22;3504;52.616;13.238;2023-05-10T19:33:03;17.79;65.35
6930;DHT22;3504;52.616;13.238;2023-05-10T19:38:04;17.62;67.80
6930;DHT22;3504;52.616;13.238;2023-05-10T19:43:05;17.42;67.54
6930;DHT22;3504;52.616;13.238;2023-05-10T19:48:06;17.34;67.67
6930;DHT22;3504;52.616;13.238;2023-05-10T19:53:06;17.21;67.76
6930;DHT22;3504;52.616;13.238;2023-05-10T19:58:07;17.10;67.91
6930;DHT22;3504;52.616;13.238;2023-05-10T20:03:07;16.97;68.00
6930;DHT22;3504;52.616;13.238;2023-05-10T20:08:08;16.90;68.01
6930;DHT22;3504;52.616;13.238;2023-05-10T20:13:08;16.77;68.38
6930;DHT22;3504;52.616;13.238;2023-05-10T20:18:09;16.72;68.51
6930;DHT22;3504;52.616;13.238;2023-05-10T20:23:09;16.63;68.87
6930;DHT22;3504;52.616;13.238;2023-05-10T20:28:10;16.53;69.14
6930;DHT22;3504;52.616;13.238;2023-05-10T20:33:12;16.46;69.66
6930;DHT22;3504;52.616;13.238;2023-05-10T20:38:14;16.36;69.92
6930;DHT22;3504;52.616;13.238;2023-05-10T20:43:15;16.25;69.46
6930;DHT22;3504;52.616;13.238;2023-05-10T20:48:16;16.17;69.26
6930;DHT22;3504;52.616;13.238;2023-05-10T20:53:16;16.04;70.67
6930;DHT22;3504;52.616;13.238;2023-05-10T20:58:17;15.92;70.47
6930;DHT22;3504;52.616;13.238;2023-05-10T21:03:18;15.84;69.97
6930;DHT22;3504;52.616;13.238;2023-05-10T21:08:18;15.73;71.59
6930;DHT22;3504;52.616;13.238;2023-05-10T21:13:19;15.57;72.01
6930;DHT22;3504;52.616;13.238;2023-05-10T21:18:19;15.46;71.73
6930;DHT22;3504;52.616;13.238;2023-05-10T21:23:20;15.33;72.16
6930;DHT22;3504;52.616;13.238;2023-05-10T21:28:20;15.30;71.68
6930;DHT22;3504;52.616;13.238;2023-05-10T21:33:21;15.19;72.37
6930;DHT22;3504;52.616;13.238;2023-05-10T21:38:21;15.15;71.05
6930;DHT22;3504;52.616;13.238;2023-05-10T21:43:22;15.09;72.07
6930;DHT22;3504;52.616;13.238;2023-05-10T21:48:23;15.00;72.20
6930;DHT22;3504;52.616;13.238;2023-05-10T21:53:23;14.95;72.96
6930;DHT22;3504;52.616;13.238;2023-05-10T21:58:24;14.89;73.45
6930;DHT22;3504;52.616;13.238;2023-05-10T22:03:24;14.88;73.54
6930;DHT22;3504;52.616;13.238;2023-05-10T22:08:25;14.79;74.80
6930;DHT22;3504;52.616;13.238;2023-05-10T22:13:25;14.82;73.39
6930;DHT22;3504;52.616;13.238;2023-05-10T22:18:26;14.88;73.25
6930;DHT22;3504;52.616;13.238;2023-05-10T22:23:26;14.92;74.17
6930;DHT22;3504;52.616;13.238;2023-05-10T22:28:27;14.86;74.66
6930;DHT22;3504;52.616;13.238;2023-05-10T22:33:28;14.86;75.05
6930;DHT22;3504;52.616;13.238;2023-05-10T22:38:29;14.84;75.11
6930;DHT22;3504;52.616;13.238;2023-05-10T22:43:29;14.81;74.10
6930;DHT22;3504;52.616;13.238;2023-05-10T22:48:30;14.86;74.77
6930;DHT22;3504;52.616;13.238;2023-05-10T22:53:32;14.78;75.00
6930;DHT22;3504;52.616;13.238;2023-05-10T22:58:33;14.78;74.18
6930;DHT22;3504;52.616;13.238;2023-05-10T23:03:33;14.68;74.54
6930;DHT22;3504;52.616;13.238;2023-05-10T23:08:34;14.68;74.38
6930;DHT22;3504;52.616;13.238;2023-05-10T23:13:34;14.63;74.10
6930;DHT22;3504;52.616;13.238;2023-05-10T23:18:35;14.58;74.91
6930;DHT22;3504;52.616;13.238;2023-05-10T23:23:35;14.50;74.96
6930;DHT22;3504;52.616;13.238;2023-05-10T23:28:36;14.40;75.41
6930;DHT22;3504;52.616;13.238;2023-05-10T23:33:37;14.31;74.99
6930;DHT22;3504;52.616;13.238;2023-05-10T23:38:37;14.20;75.22
6930;DHT22;3504;52.616;13.238;2023-05-10T23:43:38;14.10;75.00
6930;DHT22;3504;52.616;13.238;2023-05-10T23:48:39;14.00;75.01
6930;DHT22;3504;52.616;13.238;2023-05-10T23:53:39;13.92;75.74
6930;DHT22;3504;52.616;13.238;2023-05-10T23:58:40;13.81;74.65
